createdAt,value
2016-11-15T00:00:25.993Z,101466
2016-11-15T00:02:27.402Z,101461
2016-11-15T00:04:27.367Z,101465
2016-11-15T00:06:26.073Z,101463
2016-11-15T00:08:26.037Z,101457
2016-11-15T00:10:27.466Z,101458
2016-11-15T00:12:27.514Z,101450
2016-11-15T00:14:27.602Z,101445
2016-11-15T00:16:27.607Z,101441
2016-11-15T00:18:27.699Z,101439
2016-11-15T00:20:26.382Z,101444
2016-11-15T00:22:26.382Z,101437
2016-11-15T00:24:26.426Z,101439
2016-11-15T00:26:27.778Z,101437
2016-11-15T00:28:27.859Z,101432
2016-11-15T00:30:26.627Z,101438
2016-11-15T00:32:26.686Z,101437
2016-11-15T00:34:28.100Z,101438
2016-11-15T00:36:26.734Z,101436
2016-11-15T00:38:26.842Z,101436
2016-11-15T00:40:28.203Z,101434
2016-11-15T00:42:26.860Z,101429
2016-11-15T00:44:26.874Z,101427
2016-11-15T00:46:28.290Z,101429
2016-11-15T00:48:26.961Z,101431
2016-11-15T00:50:28.367Z,101428
2016-11-15T00:52:27.051Z,101428
2016-11-15T00:54:28.363Z,101427
2016-11-15T00:56:27.097Z,101428
2016-11-15T00:58:28.472Z,101426
2016-11-15T01:00:28.571Z,101422
2016-11-15T01:02:28.554Z,101416
2016-11-15T01:04:28.675Z,101419
2016-11-15T01:06:27.313Z,101412
2016-11-15T01:08:28.713Z,101411
2016-11-15T01:10:27.390Z,101404
2016-11-15T01:12:27.524Z,101400
2016-11-15T01:14:28.938Z,101399
2016-11-15T01:16:29.048Z,101393
2016-11-15T01:18:29.078Z,101396
2016-11-15T01:20:27.868Z,101396
2016-11-15T01:22:27.883Z,101396
2016-11-15T01:24:27.937Z,101394
2016-11-15T01:26:29.410Z,101389
2016-11-15T01:28:29.471Z,101388
2016-11-15T01:30:28.147Z,101389
2016-11-15T01:32:28.256Z,101382
2016-11-15T01:34:29.632Z,101375
2016-11-15T01:36:28.366Z,101373
2016-11-15T01:38:29.736Z,101374
2016-11-15T01:40:29.766Z,101374
2016-11-15T01:42:29.855Z,101371
2016-11-15T01:44:29.891Z,101373
2016-11-15T01:46:29.887Z,101368
2016-11-15T01:48:28.511Z,101370
2016-11-15T01:50:28.616Z,101365
2016-11-15T01:52:28.617Z,101360
2016-11-15T01:54:28.664Z,101360
2016-11-15T01:56:28.663Z,101362
2016-11-15T01:58:30.124Z,101364
2016-11-15T02:00:30.150Z,101362
2016-11-15T02:02:30.158Z,101359
2016-11-15T02:04:28.798Z,101359
2016-11-15T02:06:28.838Z,101349
2016-11-15T02:08:30.273Z,101357
2016-11-15T02:10:30.271Z,101355
2016-11-15T02:12:30.331Z,101356
2016-11-15T02:14:30.346Z,101356
2016-11-15T02:16:29.043Z,101358
2016-11-15T02:18:29.190Z,101356
2016-11-15T02:20:30.607Z,101336
2016-11-15T02:22:30.559Z,101339
2016-11-15T02:24:29.282Z,101336
2016-11-15T02:26:30.858Z,101336
2016-11-15T02:28:30.968Z,101332
2016-11-15T02:30:30.809Z,101324
2016-11-15T02:32:30.884Z,101325
2016-11-15T02:34:29.590Z,101324
2016-11-15T02:36:29.514Z,101322
2016-11-15T02:38:31.031Z,101322
2016-11-15T02:40:29.703Z,101316
2016-11-15T02:42:31.083Z,101317
2016-11-15T02:44:29.753Z,101322
2016-11-15T02:46:31.098Z,101313
2016-11-15T02:48:29.831Z,101323
2016-11-15T02:50:29.976Z,101324
2016-11-15T02:52:31.273Z,101322
2016-11-15T02:54:31.377Z,101321
2016-11-15T02:56:31.435Z,101320
2016-11-15T02:58:30.090Z,101314
2016-11-15T03:00:30.740Z,101316
2016-11-15T03:02:31.609Z,101314
2016-11-15T03:04:30.181Z,101313
2016-11-15T03:06:31.564Z,101306
2016-11-15T03:08:31.590Z,101304
2016-11-15T03:10:31.660Z,101297
2016-11-15T03:12:31.678Z,101295
2016-11-15T03:14:30.385Z,101294
2016-11-15T03:16:30.375Z,101290
2016-11-15T03:18:31.798Z,101289
2016-11-15T03:20:31.832Z,101285
2016-11-15T03:22:30.604Z,101286
2016-11-15T03:24:31.886Z,101289
2016-11-15T03:26:32.075Z,101287
2016-11-15T03:28:30.793Z,101284
2016-11-15T03:30:32.211Z,101282
2016-11-15T03:32:30.932Z,101284
2016-11-15T03:34:30.974Z,101278
2016-11-15T03:36:32.327Z,101275
2016-11-15T03:38:32.332Z,101276
2016-11-15T03:40:31.027Z,101281
2016-11-15T03:42:31.014Z,101279
2016-11-15T03:44:31.114Z,101277
2016-11-15T03:46:31.223Z,101277
2016-11-15T03:48:31.188Z,101278
2016-11-15T03:50:32.588Z,101278
2016-11-15T03:52:32.633Z,101280
2016-11-15T03:54:32.624Z,101274
2016-11-15T03:56:31.268Z,101276
2016-11-15T03:58:32.737Z,101278
2016-11-15T04:00:32.747Z,101277
2016-11-15T04:02:31.411Z,101276
2016-11-15T04:04:31.489Z,101269
2016-11-15T04:08:32.873Z,101267
2016-11-15T04:10:31.621Z,101268
2016-11-15T04:12:33.066Z,101261
2016-11-15T04:14:31.677Z,101260
2016-11-15T04:16:33.153Z,101258
2016-11-15T04:18:33.160Z,101255
2016-11-15T04:20:33.170Z,101253
2016-11-15T04:22:31.847Z,101247
2016-11-15T04:24:31.837Z,101247
2016-11-15T04:26:33.213Z,101248
2016-11-15T04:28:31.954Z,101244
2016-11-15T04:30:33.322Z,101244
2016-11-15T04:32:33.403Z,101240
2016-11-15T04:34:33.518Z,101235
2016-11-15T04:36:33.535Z,101233
2016-11-15T04:38:32.174Z,101238
2016-11-15T04:40:33.653Z,101233
2016-11-15T04:42:32.276Z,101231
2016-11-15T04:44:32.338Z,101238
2016-11-15T04:46:33.780Z,101239
2016-11-15T04:48:32.494Z,101236
2016-11-15T04:50:33.905Z,101238
2016-11-15T04:52:33.993Z,101237
2016-11-15T04:54:32.666Z,101234
2016-11-15T04:56:32.720Z,101233
2016-11-15T04:58:32.779Z,101231
2016-11-15T05:00:32.835Z,101230
2016-11-15T05:02:32.877Z,101227
2016-11-15T05:04:32.969Z,101223
2016-11-15T05:06:33.088Z,101225
2016-11-15T05:08:33.141Z,101222
2016-11-15T05:10:33.185Z,101220
2016-11-15T05:12:33.260Z,101215
2016-11-15T05:14:34.711Z,101212
2016-11-15T05:16:34.762Z,101212
2016-11-15T05:18:34.738Z,101207
2016-11-15T05:20:34.808Z,101207
2016-11-15T05:22:34.887Z,101211
2016-11-15T05:24:34.843Z,101211
2016-11-15T05:26:34.871Z,101209
2016-11-15T05:28:33.546Z,101207
2016-11-15T05:30:35.006Z,101213
2016-11-15T05:32:34.996Z,101205
2016-11-15T05:34:33.779Z,101206
2016-11-15T05:36:33.847Z,101204
2016-11-15T05:38:33.938Z,101202
2016-11-15T05:40:33.966Z,101202
2016-11-15T05:42:35.377Z,101197
2016-11-15T05:44:35.421Z,101200
2016-11-15T05:46:34.166Z,101201
2016-11-15T05:48:35.514Z,101205
2016-11-15T05:50:35.587Z,101208
2016-11-15T05:52:35.629Z,101208
2016-11-15T05:54:34.338Z,101208
2016-11-15T05:56:35.686Z,101210
2016-11-15T05:58:34.487Z,101216
2016-11-15T06:00:35.879Z,101212
2016-11-15T06:02:34.584Z,101210
2016-11-15T06:04:34.566Z,101208
2016-11-15T06:06:34.669Z,101202
2016-11-15T06:08:36.034Z,101202
2016-11-15T06:10:36.138Z,101208
2016-11-15T06:12:34.871Z,101192
2016-11-15T06:14:36.231Z,101189
2016-11-15T06:16:34.932Z,101186
2016-11-15T06:18:35.026Z,101183
2016-11-15T06:20:35.018Z,101187
2016-11-15T06:22:35.099Z,101189
2016-11-15T06:24:36.436Z,101189
2016-11-15T06:26:37.045Z,101186
2016-11-15T06:28:35.227Z,101190
2016-11-15T06:30:36.625Z,101185
2016-11-15T06:32:36.620Z,101184
2016-11-15T06:34:35.343Z,101186
2016-11-15T06:36:36.715Z,101183
2016-11-15T06:38:36.762Z,101186
2016-11-15T06:40:35.494Z,101188
2016-11-15T06:42:36.889Z,101187
2016-11-15T06:44:36.913Z,101180
2016-11-15T06:46:36.924Z,101177
2016-11-15T06:48:35.566Z,101178
2016-11-15T06:50:37.002Z,101180
2016-11-15T06:52:37.052Z,101180
2016-11-15T06:54:35.721Z,101183
2016-11-15T06:56:35.817Z,101180
2016-11-15T06:58:37.149Z,101181
2016-11-15T07:00:37.158Z,101179
2016-11-15T07:02:35.953Z,101175
2016-11-15T07:04:35.900Z,101175
2016-11-15T07:06:36.005Z,101174
2016-11-15T07:08:37.415Z,101188
2016-11-15T07:10:36.159Z,101183
2016-11-15T07:12:36.193Z,101179
2016-11-15T07:14:37.554Z,101178
2016-11-15T07:16:37.703Z,101177
2016-11-15T07:18:37.645Z,101174
2016-11-15T07:20:37.773Z,101164
2016-11-15T07:22:38.585Z,101177
2016-11-15T07:24:37.974Z,101168
2016-11-15T07:26:36.601Z,101180
2016-11-15T07:28:38.056Z,101184
2016-11-15T07:30:36.918Z,101186
2016-11-15T07:32:36.747Z,101178
2016-11-15T07:34:36.775Z,101179
2016-11-15T07:36:38.176Z,101188
2016-11-15T07:38:38.169Z,101190
2016-11-15T07:40:36.834Z,101192
2016-11-15T07:42:38.150Z,101190
2016-11-15T07:44:38.166Z,101185
2016-11-15T07:46:37.006Z,101197
2016-11-15T07:48:38.478Z,101195
2016-11-15T07:50:38.415Z,101182
2016-11-15T07:52:38.434Z,101181
2016-11-15T07:54:38.441Z,101182
2016-11-15T07:56:37.093Z,101183
2016-11-15T07:58:38.564Z,101177
2016-11-15T08:00:37.232Z,101180
2016-11-15T08:02:37.858Z,101175
2016-11-15T08:04:37.304Z,101179
2016-11-15T08:06:38.654Z,101186
2016-11-15T08:08:39.839Z,101184
2016-11-15T08:10:37.439Z,101189
2016-11-15T08:12:38.753Z,101183
2016-11-15T08:14:38.786Z,101180
2016-11-15T08:16:37.490Z,101179
2016-11-15T08:18:37.677Z,101188
2016-11-15T08:20:39.047Z,101180
2016-11-15T08:22:37.801Z,101184
2016-11-15T08:24:37.826Z,101187
2016-11-15T08:26:39.116Z,101184
2016-11-15T08:28:37.901Z,101184
2016-11-15T08:30:40.537Z,101190
2016-11-15T08:32:40.056Z,101179
2016-11-15T08:34:39.420Z,101179
2016-11-15T08:36:38.107Z,101188
2016-11-15T08:38:38.155Z,101179
2016-11-15T08:40:38.269Z,101177
2016-11-15T08:42:39.604Z,101178
2016-11-15T08:44:38.405Z,101181
2016-11-15T08:46:38.549Z,101185
2016-11-15T08:48:39.899Z,101183
2016-11-15T08:50:38.501Z,101184
2016-11-15T08:52:40.523Z,101189
2016-11-15T08:54:40.047Z,101189
2016-11-15T08:56:38.665Z,101186
2016-11-15T08:58:38.820Z,101192
2016-11-15T09:00:39.565Z,101194
2016-11-15T09:02:42.053Z,101186
2016-11-15T09:04:42.414Z,101184
2016-11-15T09:06:40.109Z,101195
2016-11-15T09:08:38.994Z,101188
2016-11-15T09:10:41.976Z,101190
2016-11-15T09:12:40.471Z,101199
2016-11-15T09:14:41.543Z,101193
2016-11-15T09:16:39.823Z,101200
2016-11-15T09:18:39.864Z,101199
2016-11-15T09:20:39.239Z,101208
2016-11-15T09:22:40.054Z,101207
2016-11-15T09:24:42.568Z,101198
2016-11-15T09:26:41.436Z,101196
2016-11-15T09:28:40.693Z,101204
2016-11-15T09:30:42.091Z,101187
2016-11-15T09:32:39.546Z,101192
2016-11-15T09:34:41.774Z,101204
2016-11-15T09:36:43.755Z,101203
2016-11-15T09:38:41.699Z,101210
2016-11-15T09:40:39.761Z,101203
2016-11-15T09:42:39.839Z,101205
2016-11-15T09:44:41.367Z,101206
2016-11-15T09:46:40.004Z,101207
2016-11-15T09:48:40.091Z,101198
2016-11-15T09:50:43.655Z,101211
2016-11-15T09:52:40.963Z,101213
2016-11-15T09:54:44.117Z,101207
2016-11-15T09:56:41.519Z,101211
2016-11-15T09:58:41.739Z,101205
2016-11-15T10:00:41.684Z,101202
2016-11-15T10:02:41.747Z,101201
2016-11-15T10:04:42.580Z,101204
2016-11-15T10:06:40.471Z,101198
2016-11-15T10:08:41.311Z,101189
2016-11-15T10:10:44.091Z,101183
2016-11-15T10:12:43.890Z,101174
2016-11-15T10:14:42.116Z,101169
2016-11-15T10:18:42.203Z,101167
2016-11-15T10:20:42.168Z,101169
2016-11-15T10:22:41.458Z,101160
2016-11-15T10:24:44.268Z,101154
2016-11-15T10:26:40.948Z,101150
2016-11-15T10:28:43.139Z,101154
2016-11-15T10:30:46.273Z,101152
2016-11-15T10:32:41.767Z,101162
2016-11-15T10:34:43.595Z,101159
2016-11-15T10:36:42.576Z,101166
2016-11-15T10:38:44.745Z,101164
2016-11-15T10:40:41.302Z,101174
2016-11-15T10:42:46.404Z,101172
2016-11-15T10:44:43.784Z,101178
2016-11-15T10:46:43.382Z,101179
2016-11-15T10:48:52.249Z,101180
2016-11-15T10:50:41.565Z,101182
2016-11-15T10:52:45.392Z,101180
2016-11-15T10:54:42.805Z,101177
2016-11-15T10:56:42.004Z,101174
2016-11-15T10:58:42.919Z,101165
2016-11-15T11:00:42.927Z,101167
2016-11-15T11:02:42.833Z,101168
2016-11-15T11:04:43.208Z,101177
2016-11-15T11:06:44.470Z,101172
2016-11-15T11:08:44.487Z,101187
2016-11-15T11:10:45.229Z,101182
2016-11-15T11:12:44.556Z,101184
2016-11-15T11:14:43.419Z,101180
2016-11-15T11:16:44.662Z,101176
2016-11-15T11:18:43.405Z,101172
2016-11-15T11:20:43.530Z,101167
2016-11-15T11:22:46.016Z,101173
2016-11-15T11:24:43.482Z,101171
2016-11-15T11:26:44.212Z,101162
2016-11-15T11:28:44.331Z,101162
2016-11-15T11:30:42.396Z,101157
2016-11-15T11:32:47.275Z,101153
2016-11-15T11:34:45.104Z,101157
2016-11-15T11:36:45.304Z,101154
2016-11-15T11:38:45.398Z,101161
2016-11-15T11:40:46.714Z,101151
2016-11-15T11:42:46.168Z,101155
2016-11-15T11:44:42.715Z,101143
2016-11-15T11:46:44.916Z,101134
2016-11-15T11:48:44.313Z,101131
2016-11-15T11:50:44.283Z,101135
2016-11-15T11:52:47.233Z,101139
2016-11-15T11:54:49.404Z,101144
2016-11-15T11:56:49.736Z,101144
2016-11-15T11:58:45.159Z,101143
2016-11-15T12:00:45.167Z,101141
2016-11-15T12:02:45.116Z,101145
2016-11-15T12:04:45.202Z,101141
2016-11-15T12:06:44.602Z,101132
2016-11-15T12:08:46.051Z,101132
2016-11-15T12:10:44.671Z,101135
2016-11-15T12:12:44.684Z,101137
2016-11-15T12:14:44.766Z,101127
2016-11-15T12:16:46.422Z,101136
2016-11-15T12:18:43.518Z,101120
2016-11-15T12:20:43.520Z,101127
2016-11-15T12:22:45.669Z,101134
2016-11-15T12:24:44.977Z,101129
2016-11-15T12:26:44.987Z,101134
2016-11-15T12:28:43.603Z,101131
2016-11-15T12:30:45.066Z,101134
2016-11-15T12:32:43.769Z,101135
2016-11-15T12:34:45.274Z,101133
2016-11-15T12:36:43.880Z,101128
2016-11-15T12:38:43.861Z,101126
2016-11-15T12:40:45.304Z,101138
2016-11-15T12:42:43.905Z,101129
2016-11-15T12:44:45.299Z,101131
2016-11-15T12:46:46.841Z,101139
2016-11-15T12:48:45.307Z,101136
2016-11-15T12:50:47.995Z,101145
2016-11-15T12:52:44.819Z,101132
2016-11-15T12:54:44.321Z,101117
2016-11-15T12:56:45.065Z,101122
2016-11-15T12:58:46.119Z,101114
2016-11-15T13:00:46.818Z,101108
2016-11-15T13:02:47.029Z,101106
2016-11-15T13:05:14.463Z,101099
2016-11-15T13:07:16.444Z,101097
2016-11-15T13:09:14.626Z,101080
2016-11-15T13:11:13.912Z,101085
2016-11-15T13:13:13.577Z,101081
2016-11-15T13:15:15.419Z,101078
2016-11-15T13:17:14.799Z,101083
2016-11-15T13:19:15.971Z,101092
2016-11-15T13:21:14.833Z,101093
2016-11-15T13:23:14.162Z,101085
2016-11-15T13:25:13.544Z,101095
2016-11-15T13:27:16.060Z,101095
2016-11-15T13:29:15.665Z,101093
2016-11-15T13:31:16.800Z,101098
2016-11-15T13:33:15.040Z,101088
2016-11-15T13:35:13.825Z,101101
2016-11-15T13:37:15.799Z,101100
2016-11-15T13:39:15.216Z,101091
2016-11-15T13:41:16.036Z,101091
2016-11-15T13:43:17.757Z,101090
2016-11-15T13:45:16.193Z,101084
2016-11-15T13:47:15.298Z,101074
2016-11-15T13:49:14.815Z,101076
2016-11-15T13:51:14.989Z,101065
2016-11-15T13:53:15.540Z,101082
2016-11-15T13:55:18.361Z,101069
2016-11-15T13:57:18.508Z,101065
2016-11-15T13:59:15.651Z,101068
2016-11-15T14:01:16.501Z,101074
2016-11-15T14:03:17.206Z,101077
2016-11-15T14:05:17.966Z,101081
2016-11-15T14:07:14.632Z,101077
2016-11-15T14:09:14.686Z,101069
2016-11-15T14:11:17.352Z,101079
2016-11-15T14:13:16.163Z,101080
2016-11-15T14:15:16.729Z,101080
2016-11-15T14:17:17.486Z,101076
2016-11-15T14:19:17.615Z,101067
2016-11-15T14:21:16.927Z,101069
2016-11-15T14:23:16.410Z,101064
2016-11-15T14:25:17.991Z,101065
2016-11-15T14:27:15.850Z,101075
2016-11-15T14:29:15.864Z,101078
2016-11-15T14:31:16.653Z,101071
2016-11-15T14:33:17.417Z,101073
2016-11-15T14:35:15.471Z,101070
2016-11-15T14:37:16.921Z,101074
2016-11-15T14:39:15.522Z,101072
2016-11-15T14:41:15.596Z,101078
2016-11-15T14:43:15.535Z,101065
2016-11-15T14:45:16.978Z,101074
2016-11-15T14:47:16.960Z,101072
2016-11-15T14:49:16.372Z,101071
2016-11-15T14:51:15.844Z,101072
2016-11-15T14:53:15.863Z,101068
2016-11-15T14:55:17.231Z,101065
2016-11-15T14:57:16.020Z,101071
2016-11-15T14:59:16.824Z,101063
2016-11-15T15:01:18.194Z,101068
2016-11-15T15:03:17.495Z,101065
2016-11-15T15:05:16.234Z,101052
2016-11-15T15:07:16.388Z,101038
2016-11-15T15:09:16.400Z,101039
2016-11-15T15:11:16.411Z,101030
2016-11-15T15:13:16.507Z,101033
2016-11-15T15:15:17.818Z,101036
2016-11-15T15:17:16.496Z,101032
2016-11-15T15:19:17.887Z,101042
2016-11-15T15:21:18.681Z,101044
2016-11-15T15:23:18.718Z,101043
2016-11-15T15:25:17.992Z,101049
2016-11-15T15:27:18.127Z,101056
2016-11-15T15:29:16.862Z,101055
2016-11-15T15:31:18.326Z,101051
2016-11-15T15:33:17.003Z,101059
2016-11-15T15:35:18.444Z,101062
2016-11-15T15:37:18.519Z,101072
2016-11-15T15:39:19.079Z,101065
2016-11-15T15:41:18.511Z,101058
2016-11-15T15:43:19.175Z,101060
2016-11-15T15:45:18.382Z,101057
2016-11-15T15:47:19.364Z,101051
2016-11-15T15:49:18.621Z,101065
2016-11-15T15:51:17.263Z,101059
2016-11-15T15:53:18.637Z,101056
2016-11-15T15:55:18.736Z,101070
2016-11-15T15:57:18.049Z,101073
2016-11-15T15:59:18.824Z,101060
2016-11-15T16:01:17.632Z,101059
2016-11-15T16:03:18.980Z,101051
2016-11-15T16:05:19.026Z,101052
2016-11-15T16:07:17.680Z,101051
2016-11-15T16:09:17.746Z,101046
2016-11-15T16:11:17.821Z,101034
2016-11-15T16:13:19.200Z,101030
2016-11-15T16:15:17.902Z,101032
2016-11-15T16:17:19.288Z,101029
2016-11-15T16:19:19.407Z,101023
2016-11-15T16:21:19.294Z,101010
2016-11-15T16:23:18.206Z,101016
2016-11-15T16:25:19.574Z,101019
2016-11-15T16:27:19.691Z,101023
2016-11-15T16:29:19.681Z,101032
2016-11-15T16:31:18.375Z,101036
2016-11-15T16:33:18.488Z,101030
2016-11-15T16:35:19.957Z,101034
2016-11-15T16:37:20.016Z,101034
2016-11-15T16:39:18.675Z,101034
2016-11-15T16:41:19.315Z,101039
2016-11-15T16:43:18.805Z,101040
2016-11-15T16:45:20.177Z,101043
2016-11-15T16:47:18.894Z,101030
2016-11-15T16:49:20.274Z,101027
2016-11-15T16:51:19.054Z,101028
2016-11-15T16:53:19.039Z,101035
2016-11-15T16:55:19.214Z,101029
2016-11-15T16:57:19.234Z,101029
2016-11-15T16:59:20.639Z,101028
2016-11-15T17:01:19.308Z,101041
2016-11-15T17:03:20.782Z,101035
2016-11-15T17:05:19.517Z,101049
2016-11-15T17:07:19.536Z,101051
2016-11-15T17:09:19.614Z,101050
2016-11-15T17:11:21.047Z,101058
2016-11-15T17:13:20.363Z,101062
2016-11-15T17:15:19.729Z,101071
2016-11-15T17:17:19.815Z,101078
2016-11-15T17:19:21.197Z,101067
2016-11-15T17:21:19.849Z,101075
2016-11-15T17:23:21.251Z,101067
2016-11-15T17:25:21.296Z,101063
2016-11-15T17:27:21.290Z,101069
2016-11-15T17:29:20.015Z,101064
2016-11-15T17:31:20.068Z,101064
2016-11-15T17:33:20.171Z,101064
2016-11-15T17:35:21.577Z,101069
2016-11-15T17:37:21.606Z,101070
2016-11-15T17:39:21.688Z,101065
2016-11-15T17:41:21.781Z,101056
2016-11-15T17:43:20.419Z,101060
2016-11-15T17:45:21.783Z,101058
2016-11-15T17:47:20.566Z,101059
2016-11-15T17:49:20.625Z,101053
2016-11-15T17:51:22.026Z,101056
2016-11-15T17:53:20.696Z,101058
2016-11-15T17:55:20.714Z,101059
2016-11-15T17:57:22.147Z,101060
2016-11-15T17:59:22.269Z,101058
2016-11-15T18:01:22.234Z,101052
2016-11-15T18:03:22.273Z,101053
2016-11-15T18:05:20.980Z,101061
2016-11-15T18:07:21.082Z,101055
2016-11-15T18:09:22.464Z,101049
2016-11-15T18:11:21.143Z,101046
2016-11-15T18:13:21.190Z,101052
2016-11-15T18:15:21.201Z,101053
2016-11-15T18:17:21.363Z,101050
2016-11-15T18:19:22.763Z,101053
2016-11-15T18:21:22.101Z,101050
2016-11-15T18:23:21.540Z,101042
2016-11-15T18:25:21.526Z,101044
2016-11-15T18:27:22.860Z,101043
2016-11-15T18:29:23.003Z,101047
2016-11-15T18:31:21.670Z,101051
2016-11-15T18:33:23.087Z,101051
2016-11-15T18:35:21.874Z,101052
2016-11-15T18:37:21.812Z,101050
2016-11-15T18:39:23.258Z,101042
2016-11-15T18:41:23.388Z,101053
2016-11-15T18:43:23.444Z,101048
2016-11-15T18:45:22.036Z,101051
2016-11-15T18:47:23.489Z,101054
2016-11-15T18:49:22.203Z,101054
2016-11-15T18:51:22.277Z,101048
2016-11-15T18:53:23.643Z,101038
2016-11-15T18:55:22.356Z,101043
2016-11-15T18:57:22.405Z,101046
2016-11-15T18:59:22.443Z,101034
2016-11-15T19:01:23.855Z,101030
2016-11-15T19:03:22.528Z,101041
2016-11-15T19:05:23.989Z,101042
2016-11-15T19:07:24.079Z,101050
2016-11-15T19:09:22.751Z,101045
2016-11-15T19:11:22.871Z,101048
2016-11-15T19:13:22.931Z,101045
2016-11-15T19:15:24.277Z,101048
2016-11-15T19:17:24.372Z,101042
2016-11-15T19:19:23.075Z,101044
2016-11-15T19:21:23.156Z,101040
2016-11-15T19:23:23.273Z,101041
2016-11-15T19:25:24.650Z,101033
2016-11-15T19:27:24.654Z,101018
2016-11-15T19:29:23.419Z,101023
2016-11-15T19:31:24.785Z,101028
2016-11-15T19:33:24.870Z,101029
2016-11-15T19:35:23.579Z,101022
2016-11-15T19:37:24.981Z,101031
2016-11-15T19:39:25.048Z,101036
2016-11-15T19:41:23.729Z,101027
2016-11-15T19:43:23.822Z,101029
2016-11-15T19:45:23.827Z,101032
2016-11-15T19:47:25.257Z,101026
2016-11-15T19:49:23.999Z,101031
2016-11-15T19:51:24.117Z,101028
2016-11-15T19:53:24.134Z,101014
2016-11-15T19:55:24.164Z,101025
2016-11-15T19:57:25.580Z,101023
2016-11-15T19:59:25.709Z,101023
2016-11-15T20:01:24.356Z,101027
2016-11-15T20:03:24.431Z,101022
2016-11-15T20:05:24.519Z,101015
2016-11-15T20:07:25.949Z,101025
2016-11-15T20:09:24.634Z,101027
2016-11-15T20:11:26.030Z,101032
2016-11-15T20:13:26.145Z,101032
2016-11-15T20:15:26.252Z,101038
2016-11-15T20:17:26.278Z,101030
2016-11-15T20:19:24.818Z,101027
2016-11-15T20:21:26.226Z,101022
2016-11-15T20:23:25.010Z,101019
2016-11-15T20:25:26.350Z,101021
2016-11-15T20:27:25.034Z,101013
2016-11-15T20:29:26.510Z,101007
2016-11-15T20:31:25.236Z,101013
2016-11-15T20:33:25.229Z,101008
2016-11-15T20:35:25.237Z,100999
2016-11-15T20:37:25.363Z,101005
2016-11-15T20:39:25.348Z,101007
2016-11-15T20:41:25.395Z,101002
2016-11-15T20:43:26.784Z,100994
2016-11-15T20:45:26.822Z,100996
2016-11-15T20:47:26.882Z,100994
2016-11-15T20:49:26.914Z,100988
2016-11-15T20:51:26.983Z,100988
2016-11-15T20:53:27.042Z,101002
2016-11-15T20:55:25.742Z,101004
2016-11-15T20:57:27.049Z,101010
2016-11-15T20:59:26.355Z,101011
2016-11-15T21:01:25.811Z,101009
2016-11-15T21:03:25.875Z,101002
2016-11-15T21:05:27.376Z,101007
2016-11-15T21:07:27.368Z,101003
2016-11-15T21:09:25.976Z,101001
2016-11-15T21:11:26.122Z,100998
2016-11-15T21:13:26.166Z,100991
2016-11-15T21:15:27.612Z,100985
2016-11-15T21:17:26.233Z,100989
2016-11-15T21:19:26.346Z,100996
2016-11-15T21:21:27.719Z,100987
2016-11-15T21:23:27.735Z,100984
2016-11-15T21:25:27.724Z,100990
2016-11-15T21:27:26.403Z,100988
2016-11-15T21:29:27.841Z,100979
2016-11-15T21:31:26.542Z,100984
2016-11-15T21:33:27.909Z,100979
2016-11-15T21:35:28.002Z,100980
2016-11-15T21:37:26.632Z,100976
2016-11-15T21:39:26.671Z,100978
2016-11-15T21:41:28.004Z,100977
2016-11-15T21:43:28.106Z,100973
2016-11-15T21:45:26.736Z,100980
2016-11-15T21:47:26.789Z,100978
2016-11-15T21:49:26.778Z,100980
2016-11-15T21:51:26.859Z,100968
2016-11-15T21:53:26.897Z,100983
2016-11-15T21:55:26.949Z,100973
2016-11-15T21:57:28.299Z,100972
2016-11-15T21:59:27.027Z,100982
2016-11-15T22:01:28.394Z,100983
2016-11-15T22:03:28.424Z,100983
2016-11-15T22:05:28.575Z,100982
2016-11-15T22:07:28.516Z,100983
2016-11-15T22:09:27.217Z,100980
2016-11-15T22:11:27.242Z,100981
2016-11-15T22:13:27.305Z,100979
2016-11-15T22:15:27.353Z,100969
2016-11-15T22:17:27.432Z,100976
2016-11-15T22:19:28.810Z,100973
2016-11-15T22:21:28.749Z,100974
2016-11-15T22:23:28.852Z,100975
2016-11-15T22:25:28.820Z,100981
2016-11-15T22:27:27.521Z,100978
2016-11-15T22:29:27.585Z,100974
2016-11-15T22:31:28.890Z,100965
2016-11-15T22:33:27.639Z,100970
2016-11-15T22:35:29.034Z,100977
2016-11-15T22:37:27.657Z,100975
2016-11-15T22:39:29.089Z,100974
2016-11-15T22:41:27.759Z,100967
2016-11-15T22:43:27.883Z,100968
2016-11-15T22:45:29.237Z,100964
2016-11-15T22:47:27.976Z,100957
2016-11-15T22:49:29.383Z,100965
2016-11-15T22:51:29.449Z,100971
2016-11-15T22:53:28.137Z,100966
2016-11-15T22:55:28.175Z,100958
2016-11-15T22:57:29.604Z,100961
2016-11-15T22:59:28.344Z,100953
2016-11-15T23:01:28.389Z,100952
2016-11-15T23:03:29.778Z,100949
2016-11-15T23:05:28.402Z,100949
2016-11-15T23:07:28.448Z,100945
2016-11-15T23:09:28.493Z,100948
2016-11-15T23:11:29.894Z,100950
2016-11-15T23:13:29.921Z,100946
2016-11-15T23:15:29.958Z,100947
2016-11-15T23:17:30.028Z,100945
2016-11-15T23:19:30.094Z,100935
2016-11-15T23:21:28.829Z,100942
2016-11-15T23:23:28.932Z,100940
2016-11-15T23:25:29.004Z,100945
2016-11-15T23:27:30.387Z,100938
2016-11-15T23:29:29.129Z,100939
2016-11-15T23:31:30.514Z,100937
2016-11-15T23:33:29.272Z,100936
2016-11-15T23:35:29.370Z,100926
2016-11-15T23:37:30.676Z,100930
2016-11-15T23:39:29.389Z,100936
2016-11-15T23:41:29.489Z,100930
2016-11-15T23:43:30.923Z,100927
2016-11-15T23:45:31.001Z,100922
2016-11-15T23:47:29.697Z,100920
2016-11-15T23:49:31.115Z,100917
2016-11-15T23:51:29.800Z,100916
2016-11-15T23:53:29.874Z,100911
2016-11-15T23:55:31.293Z,100914
2016-11-15T23:57:31.301Z,100910
2016-11-15T23:59:29.992Z,100902
